sensor_id;sensor_type;location;lat;lon;timestamp;P1;durP1;ratioP1;P2;durP2;ratioP2
41966;SDS011;27656;53.068;8.818;2023-04-26T00:01:38;12.20;;;3.57;;
41966;SDS011;27656;53.068;8.818;2023-04-26T00:04:05;10.83;;;3.20;;
41966;SDS011;27656;53.068;8.818;2023-04-26T00:06:33;11.03;;;3.27;;
41966;SDS011;27656;53.068;8.818;2023-04-26T00:09:02;10.40;;;3.00;;
41966;SDS011;27656;53.068;8.818;2023-04-26T00:11:29;12.90;;;3.00;;
41966;SDS011;27656;53.068;8.818;2023-04-26T00:13:57;8.80;;;3.10;;
41966;SDS011;27656;53.068;8.818;2023-04-26T00:16:23;16.30;;;3.23;;
41966;SDS011;27656;53.068;8.818;2023-04-26T00:18:50;9.50;;;3.13;;
41966;SDS011;27656;53.068;8.818;2023-04-26T00:21:17;12.13;;;3.30;;
41966;SDS011;27656;53.068;8.818;2023-04-26T00:23:43;10.70;;;3.60;;
41966;SDS011;27656;53.068;8.818;2023-04-26T00:26:09;11.00;;;3.17;;
41966;SDS011;27656;53.068;8.818;2023-04-26T00:28:36;7.53;;;3.00;;
41966;SDS011;27656;53.068;8.818;2023-04-26T00:31:03;9.87;;;3.30;;
41966;SDS011;27656;53.068;8.818;2023-04-26T00:33:29;8.97;;;2.90;;
41966;SDS011;27656;53.068;8.818;2023-04-26T00:35:56;10.97;;;3.63;;
41966;SDS011;27656;53.068;8.818;2023-04-26T00:38:22;12.17;;;3.63;;
41966;SDS011;27656;53.068;8.818;2023-04-26T00:40:49;12.83;;;3.83;;
41966;SDS011;27656;53.068;8.818;2023-04-26T00:43:15;10.33;;;3.67;;
41966;SDS011;27656;53.068;8.818;2023-04-26T00:45:42;10.40;;;3.63;;
41966;SDS011;27656;53.068;8.818;2023-04-26T00:48:08;12.67;;;3.77;;
41966;SDS011;27656;53.068;8.818;2023-04-26T00:50:35;15.10;;;3.80;;
41966;SDS011;27656;53.068;8.818;2023-04-26T00:53:01;9.40;;;3.70;;
41966;SDS011;27656;53.068;8.818;2023-04-26T00:55:28;11.13;;;3.70;;
41966;SDS011;27656;53.068;8.818;2023-04-26T00:57:54;10.03;;;3.50;;
41966;SDS011;27656;53.068;8.818;2023-04-26T01:00:21;10.13;;;3.40;;
41966;SDS011;27656;53.068;8.818;2023-04-26T01:02:47;15.83;;;3.90;;
41966;SDS011;27656;53.068;8.818;2023-04-26T01:05:14;11.47;;;3.83;;
41966;SDS011;27656;53.068;8.818;2023-04-26T01:07:41;9.03;;;3.67;;
41966;SDS011;27656;53.068;8.818;2023-04-26T01:10:07;13.47;;;3.73;;
41966;SDS011;27656;53.068;8.818;2023-04-26T01:12:35;13.17;;;3.60;;
41966;SDS011;27656;53.068;8.818;2023-04-26T01:15:03;12.73;;;4.10;;
41966;SDS011;27656;53.068;8.818;2023-04-26T01:17:30;11.33;;;4.10;;
41966;SDS011;27656;53.068;8.818;2023-04-26T01:19:57;13.17;;;4.50;;
41966;SDS011;27656;53.068;8.818;2023-04-26T01:22:23;17.70;;;4.10;;
41966;SDS011;27656;53.068;8.818;2023-04-26T01:24:50;8.40;;;3.93;;
41966;SDS011;27656;53.068;8.818;2023-04-26T01:27:16;10.10;;;3.67;;
41966;SDS011;27656;53.068;8.818;2023-04-26T01:29:43;7.57;;;3.33;;
41966;SDS011;27656;53.068;8.818;2023-04-26T01:32:09;9.33;;;3.53;;
41966;SDS011;27656;53.068;8.818;2023-04-26T01:34:37;9.93;;;4.27;;
41966;SDS011;27656;53.068;8.818;2023-04-26T01:37:03;13.17;;;3.40;;
41966;SDS011;27656;53.068;8.818;2023-04-26T01:39:29;9.30;;;4.07;;
41966;SDS011;27656;53.068;8.818;2023-04-26T01:41:56;16.00;;;4.30;;
41966;SDS011;27656;53.068;8.818;2023-04-26T01:44:23;12.57;;;3.90;;
41966;SDS011;27656;53.068;8.818;2023-04-26T01:46:50;7.70;;;3.40;;
41966;SDS011;27656;53.068;8.818;2023-04-26T01:49:16;7.27;;;3.43;;
41966;SDS011;27656;53.068;8.818;2023-04-26T01:51:43;10.20;;;3.60;;
41966;SDS011;27656;53.068;8.818;2023-04-26T01:54:10;6.23;;;3.10;;
41966;SDS011;27656;53.068;8.818;2023-04-26T01:56:36;11.80;;;4.37;;
41966;SDS011;27656;53.068;8.818;2023-04-26T01:59:02;12.17;;;4.37;;
41966;SDS011;27656;53.068;8.818;2023-04-26T02:01:29;13.70;;;4.27;;
41966;SDS011;27656;53.068;8.818;2023-04-26T02:03:56;12.07;;;4.07;;
41966;SDS011;27656;53.068;8.818;2023-04-26T02:06:22;13.33;;;3.97;;
41966;SDS011;27656;53.068;8.818;2023-04-26T02:08:49;7.50;;;3.10;;
41966;SDS011;27656;53.068;8.818;2023-04-26T02:11:16;14.43;;;4.03;;
41966;SDS011;27656;53.068;8.818;2023-04-26T02:13:42;11.33;;;4.00;;
41966;SDS011;27656;53.068;8.818;2023-04-26T02:16:09;12.93;;;4.03;;
41966;SDS011;27656;53.068;8.818;2023-04-26T02:18:35;15.03;;;3.97;;
41966;SDS011;27656;53.068;8.818;2023-04-26T02:21:02;18.27;;;4.50;;
41966;SDS011;27656;53.068;8.818;2023-04-26T02:23:33;10.37;;;4.03;;
41966;SDS011;27656;53.068;8.818;2023-04-26T02:25:59;8.70;;;3.60;;
41966;SDS011;27656;53.068;8.818;2023-04-26T02:28:26;12.57;;;3.90;;
41966;SDS011;27656;53.068;8.818;2023-04-26T02:30:52;13.70;;;3.90;;
41966;SDS011;27656;53.068;8.818;2023-04-26T02:33:19;15.83;;;3.83;;
41966;SDS011;27656;53.068;8.818;2023-04-26T02:35:45;14.20;;;4.07;;
41966;SDS011;27656;53.068;8.818;2023-04-26T02:38:12;13.53;;;4.13;;
41966;SDS011;27656;53.068;8.818;2023-04-26T02:40:38;13.00;;;3.90;;
41966;SDS011;27656;53.068;8.818;2023-04-26T02:43:05;15.77;;;4.60;;
41966;SDS011;27656;53.068;8.818;2023-04-26T02:45:31;13.23;;;4.47;;
41966;SDS011;27656;53.068;8.818;2023-04-26T02:47:58;10.83;;;3.87;;
41966;SDS011;27656;53.068;8.818;2023-04-26T02:50:24;7.83;;;4.13;;
41966;SDS011;27656;53.068;8.818;2023-04-26T02:52:50;8.53;;;4.30;;
41966;SDS011;27656;53.068;8.818;2023-04-26T02:55:17;9.47;;;4.10;;
41966;SDS011;27656;53.068;8.818;2023-04-26T02:57:44;10.40;;;4.40;;
41966;SDS011;27656;53.068;8.818;2023-04-26T03:00:10;9.33;;;3.77;;
41966;SDS011;27656;53.068;8.818;2023-04-26T03:02:39;11.97;;;3.63;;
41966;SDS011;27656;53.068;8.818;2023-04-26T03:05:06;13.33;;;4.10;;
41966;SDS011;27656;53.068;8.818;2023-04-26T03:07:34;7.90;;;4.63;;
41966;SDS011;27656;53.068;8.818;2023-04-26T03:10:01;9.73;;;4.00;;
41966;SDS011;27656;53.068;8.818;2023-04-26T03:12:27;10.73;;;4.27;;
41966;SDS011;27656;53.068;8.818;2023-04-26T03:14:54;13.50;;;3.93;;
41966;SDS011;27656;53.068;8.818;2023-04-26T03:17:20;9.43;;;3.97;;
41966;SDS011;27656;53.068;8.818;2023-04-26T03:19:47;12.13;;;3.80;;
41966;SDS011;27656;53.068;8.818;2023-04-26T03:22:14;10.73;;;4.07;;
41966;SDS011;27656;53.068;8.818;2023-04-26T03:24:42;12.23;;;4.23;;
41966;SDS011;27656;53.068;8.818;2023-04-26T03:27:09;8.43;;;3.90;;
41966;SDS011;27656;53.068;8.818;2023-04-26T03:29:36;13.70;;;3.90;;
41966;SDS011;27656;53.068;8.818;2023-04-26T03:32:02;11.63;;;3.97;;
41966;SDS011;27656;53.068;8.818;2023-04-26T03:34:29;14.93;;;4.50;;
41966;SDS011;27656;53.068;8.818;2023-04-26T03:36:55;13.50;;;4.10;;
41966;SDS011;27656;53.068;8.818;2023-04-26T03:39:22;14.13;;;4.00;;
41966;SDS011;27656;53.068;8.818;2023-04-26T03:41:48;12.67;;;4.37;;
41966;SDS011;27656;53.068;8.818;2023-04-26T03:44:15;15.50;;;4.73;;
41966;SDS011;27656;53.068;8.818;2023-04-26T03:46:42;12.07;;;4.20;;
41966;SDS011;27656;53.068;8.818;2023-04-26T03:49:08;13.47;;;4.50;;
41966;SDS011;27656;53.068;8.818;2023-04-26T03:51:34;16.37;;;4.20;;
41966;SDS011;27656;53.068;8.818;2023-04-26T03:54:01;16.10;;;5.00;;
41966;SDS011;27656;53.068;8.818;2023-04-26T03:56:27;12.07;;;4.43;;
41966;SDS011;27656;53.068;8.818;2023-04-26T03:58:54;10.80;;;4.27;;
41966;SDS011;27656;53.068;8.818;2023-04-26T04:01:20;10.57;;;3.80;;
41966;SDS011;27656;53.068;8.818;2023-04-26T04:03:46;11.00;;;4.77;;
41966;SDS011;27656;53.068;8.818;2023-04-26T04:06:14;9.87;;;4.57;;
41966;SDS011;27656;53.068;8.818;2023-04-26T04:08:41;12.80;;;5.57;;
41966;SDS011;27656;53.068;8.818;2023-04-26T04:11:08;15.00;;;4.33;;
41966;SDS011;27656;53.068;8.818;2023-04-26T04:13:34;11.67;;;4.70;;
41966;SDS011;27656;53.068;8.818;2023-04-26T04:16:01;12.47;;;4.53;;
41966;SDS011;27656;53.068;8.818;2023-04-26T04:18:27;11.77;;;5.30;;
41966;SDS011;27656;53.068;8.818;2023-04-26T04:20:54;12.63;;;4.20;;
41966;SDS011;27656;53.068;8.818;2023-04-26T04:23:21;10.63;;;4.20;;
41966;SDS011;27656;53.068;8.818;2023-04-26T04:25:47;9.47;;;4.10;;
41966;SDS011;27656;53.068;8.818;2023-04-26T04:28:14;9.70;;;4.37;;
41966;SDS011;27656;53.068;8.818;2023-04-26T04:30:41;14.97;;;4.57;;
41966;SDS011;27656;53.068;8.818;2023-04-26T04:33:09;9.20;;;4.37;;
41966;SDS011;27656;53.068;8.818;2023-04-26T04:35:35;11.77;;;4.53;;
41966;SDS011;27656;53.068;8.818;2023-04-26T04:38:02;11.03;;;4.87;;
41966;SDS011;27656;53.068;8.818;2023-04-26T04:40:29;10.87;;;4.40;;
41966;SDS011;27656;53.068;8.818;2023-04-26T04:42:56;16.30;;;5.80;;
41966;SDS011;27656;53.068;8.818;2023-04-26T04:45:22;10.13;;;3.77;;
41966;SDS011;27656;53.068;8.818;2023-04-26T04:47:49;13.17;;;4.37;;
41966;SDS011;27656;53.068;8.818;2023-04-26T04:50:16;14.60;;;4.43;;
41966;SDS011;27656;53.068;8.818;2023-04-26T04:52:42;8.70;;;3.73;;
41966;SDS011;27656;53.068;8.818;2023-04-26T04:55:09;10.43;;;4.20;;
41966;SDS011;27656;53.068;8.818;2023-04-26T04:57:35;11.70;;;4.30;;
41966;SDS011;27656;53.068;8.818;2023-04-26T05:00:02;10.10;;;4.30;;
41966;SDS011;27656;53.068;8.818;2023-04-26T05:02:35;13.80;;;4.23;;
41966;SDS011;27656;53.068;8.818;2023-04-26T05:05:02;9.47;;;3.37;;
41966;SDS011;27656;53.068;8.818;2023-04-26T05:07:30;12.67;;;3.37;;
41966;SDS011;27656;53.068;8.818;2023-04-26T05:09:57;14.83;;;4.10;;
41966;SDS011;27656;53.068;8.818;2023-04-26T05:12:24;12.73;;;4.73;;
41966;SDS011;27656;53.068;8.818;2023-04-26T05:14:50;8.10;;;3.93;;
41966;SDS011;27656;53.068;8.818;2023-04-26T05:17:17;11.17;;;3.40;;
41966;SDS011;27656;53.068;8.818;2023-04-26T05:19:43;8.77;;;3.20;;
41966;SDS011;27656;53.068;8.818;2023-04-26T05:22:10;9.30;;;3.00;;
41966;SDS011;27656;53.068;8.818;2023-04-26T05:24:38;9.43;;;3.30;;
41966;SDS011;27656;53.068;8.818;2023-04-26T05:27:04;10.23;;;3.50;;
41966;SDS011;27656;53.068;8.818;2023-04-26T05:29:31;9.50;;;3.30;;
41966;SDS011;27656;53.068;8.818;2023-04-26T05:31:57;8.37;;;3.03;;
41966;SDS011;27656;53.068;8.818;2023-04-26T05:34:24;8.47;;;2.80;;
41966;SDS011;27656;53.068;8.818;2023-04-26T05:36:50;6.20;;;2.97;;
41966;SDS011;27656;53.068;8.818;2023-04-26T05:39:17;6.27;;;2.70;;
41966;SDS011;27656;53.068;8.818;2023-04-26T05:41:45;9.07;;;2.63;;
41966;SDS011;27656;53.068;8.818;2023-04-26T05:44:12;6.17;;;2.27;;
41966;SDS011;27656;53.068;8.818;2023-04-26T05:46:39;6.47;;;2.73;;
41966;SDS011;27656;53.068;8.818;2023-04-26T05:49:06;5.50;;;2.33;;
41966;SDS011;27656;53.068;8.818;2023-04-26T05:51:32;8.37;;;2.70;;
41966;SDS011;27656;53.068;8.818;2023-04-26T05:53:59;7.87;;;2.73;;
41966;SDS011;27656;53.068;8.818;2023-04-26T05:56:25;7.20;;;2.50;;
41966;SDS011;27656;53.068;8.818;2023-04-26T05:58:52;3.77;;;2.60;;
41966;SDS011;27656;53.068;8.818;2023-04-26T06:01:18;6.83;;;3.00;;
41966;SDS011;27656;53.068;8.818;2023-04-26T06:03:45;7.10;;;3.17;;
41966;SDS011;27656;53.068;8.818;2023-04-26T06:06:12;9.47;;;2.73;;
41966;SDS011;27656;53.068;8.818;2023-04-26T06:08:38;6.77;;;2.80;;
41966;SDS011;27656;53.068;8.818;2023-04-26T06:11:05;7.63;;;2.40;;
41966;SDS011;27656;53.068;8.818;2023-04-26T06:13:31;8.03;;;3.30;;
41966;SDS011;27656;53.068;8.818;2023-04-26T06:15:58;8.83;;;2.70;;
41966;SDS011;27656;53.068;8.818;2023-04-26T06:18:24;9.80;;;2.43;;
41966;SDS011;27656;53.068;8.818;2023-04-26T06:20:51;11.73;;;2.83;;
41966;SDS011;27656;53.068;8.818;2023-04-26T06:23:17;10.70;;;2.70;;
41966;SDS011;27656;53.068;8.818;2023-04-26T06:25:45;10.90;;;3.10;;
41966;SDS011;27656;53.068;8.818;2023-04-26T06:28:12;8.43;;;2.97;;
41966;SDS011;27656;53.068;8.818;2023-04-26T06:30:38;7.23;;;2.73;;
41966;SDS011;27656;53.068;8.818;2023-04-26T06:33:05;9.87;;;2.87;;
41966;SDS011;27656;53.068;8.818;2023-04-26T06:35:31;12.00;;;3.70;;
41966;SDS011;27656;53.068;8.818;2023-04-26T06:37:58;11.93;;;2.70;;
41966;SDS011;27656;53.068;8.818;2023-04-26T06:40:24;15.17;;;3.10;;
41966;SDS011;27656;53.068;8.818;2023-04-26T06:42:51;10.93;;;2.83;;
41966;SDS011;27656;53.068;8.818;2023-04-26T06:45:17;7.90;;;2.90;;
41966;SDS011;27656;53.068;8.818;2023-04-26T06:47:44;7.90;;;3.20;;
41966;SDS011;27656;53.068;8.818;2023-04-26T06:50:11;10.37;;;2.83;;
41966;SDS011;27656;53.068;8.818;2023-04-26T06:52:37;6.47;;;2.77;;
41966;SDS011;27656;53.068;8.818;2023-04-26T06:55:04;6.77;;;2.83;;
41966;SDS011;27656;53.068;8.818;2023-04-26T06:57:31;12.97;;;3.30;;
41966;SDS011;27656;53.068;8.818;2023-04-26T06:59:57;9.60;;;3.00;;
41966;SDS011;27656;53.068;8.818;2023-04-26T07:02:24;5.13;;;2.60;;
41966;SDS011;27656;53.068;8.818;2023-04-26T07:04:51;11.40;;;3.30;;
41966;SDS011;27656;53.068;8.818;2023-04-26T07:07:18;9.43;;;2.83;;
41966;SDS011;27656;53.068;8.818;2023-04-26T07:09:44;7.27;;;2.73;;
41966;SDS011;27656;53.068;8.818;2023-04-26T07:12:13;8.90;;;2.77;;
41966;SDS011;27656;53.068;8.818;2023-04-26T07:14:40;6.50;;;2.67;;
41966;SDS011;27656;53.068;8.818;2023-04-26T07:17:08;9.40;;;2.90;;
41966;SDS011;27656;53.068;8.818;2023-04-26T07:19:35;10.73;;;2.60;;
41966;SDS011;27656;53.068;8.818;2023-04-26T07:22:02;9.40;;;3.07;;
41966;SDS011;27656;53.068;8.818;2023-04-26T07:24:29;7.83;;;2.97;;
41966;SDS011;27656;53.068;8.818;2023-04-26T07:26:56;8.03;;;2.63;;
41966;SDS011;27656;53.068;8.818;2023-04-26T07:29:22;6.30;;;2.70;;
41966;SDS011;27656;53.068;8.818;2023-04-26T07:31:49;7.23;;;2.57;;
41966;SDS011;27656;53.068;8.818;2023-04-26T07:34:15;7.33;;;2.57;;
41966;SDS011;27656;53.068;8.818;2023-04-26T07:36:42;7.83;;;2.20;;
41966;SDS011;27656;53.068;8.818;2023-04-26T07:39:08;9.97;;;2.77;;
41966;SDS011;27656;53.068;8.818;2023-04-26T07:41:36;6.23;;;2.43;;
41966;SDS011;27656;53.068;8.818;2023-04-26T07:44:02;9.20;;;2.33;;
41966;SDS011;27656;53.068;8.818;2023-04-26T07:46:29;5.63;;;2.20;;
41966;SDS011;27656;53.068;8.818;2023-04-26T07:48:55;6.93;;;2.23;;
41966;SDS011;27656;53.068;8.818;2023-04-26T07:51:22;4.80;;;2.30;;
41966;SDS011;27656;53.068;8.818;2023-04-26T07:53:48;7.77;;;2.40;;
41966;SDS011;27656;53.068;8.818;2023-04-26T07:56:16;8.07;;;2.60;;
41966;SDS011;27656;53.068;8.818;2023-04-26T07:58:42;7.17;;;3.00;;
41966;SDS011;27656;53.068;8.818;2023-04-26T08:01:09;5.77;;;2.17;;
41966;SDS011;27656;53.068;8.818;2023-04-26T08:03:37;5.57;;;2.27;;
41966;SDS011;27656;53.068;8.818;2023-04-26T08:06:03;9.83;;;2.60;;
41966;SDS011;27656;53.068;8.818;2023-04-26T08:08:31;10.67;;;2.90;;
41966;SDS011;27656;53.068;8.818;2023-04-26T08:10:58;4.63;;;2.20;;
41966;SDS011;27656;53.068;8.818;2023-04-26T08:13:25;9.17;;;2.47;;
41966;SDS011;27656;53.068;8.818;2023-04-26T08:15:54;7.87;;;2.37;;
41966;SDS011;27656;53.068;8.818;2023-04-26T08:18:21;5.80;;;2.50;;
41966;SDS011;27656;53.068;8.818;2023-04-26T08:20:47;8.60;;;2.50;;
41966;SDS011;27656;53.068;8.818;2023-04-26T08:23:14;7.13;;;2.70;;
41966;SDS011;27656;53.068;8.818;2023-04-26T08:25:40;7.90;;;2.37;;
41966;SDS011;27656;53.068;8.818;2023-04-26T08:28:07;6.47;;;2.43;;
41966;SDS011;27656;53.068;8.818;2023-04-26T08:30:33;6.70;;;2.50;;
41966;SDS011;27656;53.068;8.818;2023-04-26T08:33:00;8.57;;;2.37;;
41966;SDS011;27656;53.068;8.818;2023-04-26T08:35:27;6.97;;;2.37;;
41966;SDS011;27656;53.068;8.818;2023-04-26T08:37:56;7.30;;;2.20;;
41966;SDS011;27656;53.068;8.818;2023-04-26T08:40:23;9.93;;;2.63;;
41966;SDS011;27656;53.068;8.818;2023-04-26T08:42:50;10.43;;;2.53;;
41966;SDS011;27656;53.068;8.818;2023-04-26T08:45:18;9.97;;;2.60;;
41966;SDS011;27656;53.068;8.818;2023-04-26T08:47:49;8.13;;;1.90;;
41966;SDS011;27656;53.068;8.818;2023-04-26T08:50:20;8.70;;;3.07;;
41966;SDS011;27656;53.068;8.818;2023-04-26T08:52:48;7.83;;;2.50;;
41966;SDS011;27656;53.068;8.818;2023-04-26T08:55:17;6.73;;;2.03;;
41966;SDS011;27656;53.068;8.818;2023-04-26T08:57:46;9.80;;;2.23;;
41966;SDS011;27656;53.068;8.818;2023-04-26T09:00:13;9.80;;;2.40;;
41966;SDS011;27656;53.068;8.818;2023-04-26T09:02:41;7.03;;;2.70;;
41966;SDS011;27656;53.068;8.818;2023-04-26T09:05:12;7.33;;;2.60;;
41966;SDS011;27656;53.068;8.818;2023-04-26T09:07:39;6.80;;;2.70;;
41966;SDS011;27656;53.068;8.818;2023-04-26T09:10:08;11.23;;;2.33;;
41966;SDS011;27656;53.068;8.818;2023-04-26T09:12:35;6.03;;;2.97;;
41966;SDS011;27656;53.068;8.818;2023-04-26T09:15:02;6.37;;;1.93;;
41966;SDS011;27656;53.068;8.818;2023-04-26T09:17:30;5.67;;;2.37;;
41966;SDS011;27656;53.068;8.818;2023-04-26T09:19:58;5.00;;;2.40;;
41966;SDS011;27656;53.068;8.818;2023-04-26T09:22:32;5.83;;;2.20;;
41966;SDS011;27656;53.068;8.818;2023-04-26T09:25:03;5.87;;;2.10;;
41966;SDS011;27656;53.068;8.818;2023-04-26T09:27:31;11.60;;;2.77;;
41966;SDS011;27656;53.068;8.818;2023-04-26T09:30:06;10.47;;;2.53;;
41966;SDS011;27656;53.068;8.818;2023-04-26T09:32:46;5.23;;;2.40;;
41966;SDS011;27656;53.068;8.818;2023-04-26T09:35:20;9.03;;;2.90;;
41966;SDS011;27656;53.068;8.818;2023-04-26T09:37:55;7.27;;;2.57;;
41966;SDS011;27656;53.068;8.818;2023-04-26T09:43:17;8.53;;;2.83;;
41966;SDS011;27656;53.068;8.818;2023-04-26T09:45:48;9.57;;;2.97;;
41966;SDS011;27656;53.068;8.818;2023-04-26T09:48:23;11.13;;;2.43;;
41966;SDS011;27656;53.068;8.818;2023-04-26T09:50:56;6.13;;;2.20;;
41966;SDS011;27656;53.068;8.818;2023-04-26T09:56:13;9.80;;;1.97;;
41966;SDS011;27656;53.068;8.818;2023-04-26T10:01:18;5.63;;;2.10;;
41966;SDS011;27656;53.068;8.818;2023-04-26T10:03:45;4.97;;;1.77;;
41966;SDS011;27656;53.068;8.818;2023-04-26T10:06:12;5.83;;;1.97;;
41966;SDS011;27656;53.068;8.818;2023-04-26T10:08:38;4.90;;;2.20;;
41966;SDS011;27656;53.068;8.818;2023-04-26T10:11:05;6.20;;;2.20;;
41966;SDS011;27656;53.068;8.818;2023-04-26T10:13:39;6.87;;;2.40;;
41966;SDS011;27656;53.068;8.818;2023-04-26T10:16:07;8.83;;;2.50;;
41966;SDS011;27656;53.068;8.818;2023-04-26T10:18:34;6.53;;;2.33;;
41966;SDS011;27656;53.068;8.818;2023-04-26T10:21:04;62.07;;;4.60;;
41966;SDS011;27656;53.068;8.818;2023-04-26T10:23:32;7.03;;;2.13;;
41966;SDS011;27656;53.068;8.818;2023-04-26T10:25:59;6.90;;;2.17;;
41966;SDS011;27656;53.068;8.818;2023-04-26T10:31:05;8.00;;;2.13;;
41966;SDS011;27656;53.068;8.818;2023-04-26T10:33:32;6.53;;;2.13;;
41966;SDS011;27656;53.068;8.818;2023-04-26T10:38:26;7.87;;;2.50;;
41966;SDS011;27656;53.068;8.818;2023-04-26T10:40:53;7.07;;;2.30;;
41966;SDS011;27656;53.068;8.818;2023-04-26T10:43:26;8.83;;;2.70;;
41966;SDS011;27656;53.068;8.818;2023-04-26T10:45:53;7.60;;;1.43;;
41966;SDS011;27656;53.068;8.818;2023-04-26T10:48:28;6.23;;;1.60;;
41966;SDS011;27656;53.068;8.818;2023-04-26T10:56:09;5.93;;;2.00;;
41966;SDS011;27656;53.068;8.818;2023-04-26T10:58:39;6.17;;;1.70;;
41966;SDS011;27656;53.068;8.818;2023-04-26T11:01:07;7.73;;;1.60;;
41966;SDS011;27656;53.068;8.818;2023-04-26T11:03:39;6.27;;;1.90;;
41966;SDS011;27656;53.068;8.818;2023-04-26T11:06:07;5.50;;;2.00;;
41966;SDS011;27656;53.068;8.818;2023-04-26T11:08:40;5.73;;;1.90;;
41966;SDS011;27656;53.068;8.818;2023-04-26T11:11:11;9.70;;;2.33;;
41966;SDS011;27656;53.068;8.818;2023-04-26T11:13:39;9.37;;;2.73;;
41966;SDS011;27656;53.068;8.818;2023-04-26T11:16:09;4.87;;;1.97;;
41966;SDS011;27656;53.068;8.818;2023-04-26T11:18:38;8.47;;;2.50;;
41966;SDS011;27656;53.068;8.818;2023-04-26T11:21:05;6.10;;;2.40;;
41966;SDS011;27656;53.068;8.818;2023-04-26T11:23:32;6.07;;;1.97;;
41966;SDS011;27656;53.068;8.818;2023-04-26T11:25:59;7.57;;;2.10;;
41966;SDS011;27656;53.068;8.818;2023-04-26T11:28:31;9.93;;;1.90;;
41966;SDS011;27656;53.068;8.818;2023-04-26T11:31:00;6.30;;;2.20;;
41966;SDS011;27656;53.068;8.818;2023-04-26T11:33:27;4.70;;;1.73;;
41966;SDS011;27656;53.068;8.818;2023-04-26T11:35:54;7.33;;;2.00;;
41966;SDS011;27656;53.068;8.818;2023-04-26T11:38:21;5.63;;;1.70;;
41966;SDS011;27656;53.068;8.818;2023-04-26T11:40:58;9.77;;;2.13;;
41966;SDS011;27656;53.068;8.818;2023-04-26T11:43:43;5.37;;;2.33;;
41966;SDS011;27656;53.068;8.818;2023-04-26T11:46:10;7.47;;;2.00;;
41966;SDS011;27656;53.068;8.818;2023-04-26T11:48:36;5.20;;;2.03;;
41966;SDS011;27656;53.068;8.818;2023-04-26T11:51:03;2.27;;;1.50;;
41966;SDS011;27656;53.068;8.818;2023-04-26T11:53:34;8.57;;;1.63;;
41966;SDS011;27656;53.068;8.818;2023-04-26T11:56:03;5.77;;;1.50;;
41966;SDS011;27656;53.068;8.818;2023-04-26T11:58:31;5.53;;;1.43;;
41966;SDS011;27656;53.068;8.818;2023-04-26T12:00:59;4.67;;;1.43;;
41966;SDS011;27656;53.068;8.818;2023-04-26T12:20:41;4.60;;;1.80;;
41966;SDS011;27656;53.068;8.818;2023-04-26T12:23:09;5.63;;;2.00;;
41966;SDS011;27656;53.068;8.818;2023-04-26T12:25:37;5.10;;;1.70;;
41966;SDS011;27656;53.068;8.818;2023-04-26T12:28:06;7.50;;;1.60;;
41966;SDS011;27656;53.068;8.818;2023-04-26T12:30:38;2.33;;;1.40;;
41966;SDS011;27656;53.068;8.818;2023-04-26T12:33:05;3.47;;;1.20;;
41966;SDS011;27656;53.068;8.818;2023-04-26T12:35:42;4.97;;;1.53;;
41966;SDS011;27656;53.068;8.818;2023-04-26T12:38:09;6.57;;;1.50;;
41966;SDS011;27656;53.068;8.818;2023-04-26T12:40:36;3.43;;;1.47;;
41966;SDS011;27656;53.068;8.818;2023-04-26T12:43:02;4.13;;;1.40;;
41966;SDS011;27656;53.068;8.818;2023-04-26T12:45:29;3.80;;;1.47;;
41966;SDS011;27656;53.068;8.818;2023-04-26T12:47:55;7.23;;;1.57;;
41966;SDS011;27656;53.068;8.818;2023-04-26T12:50:22;2.77;;;1.20;;
41966;SDS011;27656;53.068;8.818;2023-04-26T12:52:48;9.17;;;1.53;;
41966;SDS011;27656;53.068;8.818;2023-04-26T12:55:15;3.27;;;1.10;;
41966;SDS011;27656;53.068;8.818;2023-04-26T12:57:42;5.60;;;1.40;;
41966;SDS011;27656;53.068;8.818;2023-04-26T13:00:10;2.43;;;0.90;;
41966;SDS011;27656;53.068;8.818;2023-04-26T13:02:41;3.27;;;1.57;;
41966;SDS011;27656;53.068;8.818;2023-04-26T13:05:08;3.33;;;1.10;;
41966;SDS011;27656;53.068;8.818;2023-04-26T13:07:35;4.67;;;1.47;;
41966;SDS011;27656;53.068;8.818;2023-04-26T13:10:04;3.37;;;1.03;;
41966;SDS011;27656;53.068;8.818;2023-04-26T13:12:33;7.10;;;1.20;;
41966;SDS011;27656;53.068;8.818;2023-04-26T13:14:59;6.60;;;2.30;;
41966;SDS011;27656;53.068;8.818;2023-04-26T13:17:26;3.17;;;1.00;;
41966;SDS011;27656;53.068;8.818;2023-04-26T13:19:55;2.03;;;1.07;;
41966;SDS011;27656;53.068;8.818;2023-04-26T13:22:22;2.70;;;0.97;;
41966;SDS011;27656;53.068;8.818;2023-04-26T13:24:48;6.77;;;1.80;;
41966;SDS011;27656;53.068;8.818;2023-04-26T13:27:15;7.33;;;1.77;;
41966;SDS011;27656;53.068;8.818;2023-04-26T13:29:41;5.47;;;1.67;;
41966;SDS011;27656;53.068;8.818;2023-04-26T13:32:08;8.07;;;1.90;;
41966;SDS011;27656;53.068;8.818;2023-04-26T13:34:34;12.03;;;2.33;;
41966;SDS011;27656;53.068;8.818;2023-04-26T13:37:01;7.40;;;3.17;;
41966;SDS011;27656;53.068;8.818;2023-04-26T13:39:29;4.27;;;1.53;;
41966;SDS011;27656;53.068;8.818;2023-04-26T13:41:56;5.57;;;1.63;;
41966;SDS011;27656;53.068;8.818;2023-04-26T13:44:24;5.73;;;1.90;;
41966;SDS011;27656;53.068;8.818;2023-04-26T13:46:52;6.93;;;2.27;;
41966;SDS011;27656;53.068;8.818;2023-04-26T13:49:19;5.93;;;1.80;;
41966;SDS011;27656;53.068;8.818;2023-04-26T13:51:48;9.20;;;1.57;;
41966;SDS011;27656;53.068;8.818;2023-04-26T13:54:14;7.20;;;1.70;;
41966;SDS011;27656;53.068;8.818;2023-04-26T13:56:42;5.70;;;1.90;;
41966;SDS011;27656;53.068;8.818;2023-04-26T13:59:08;7.03;;;2.40;;
41966;SDS011;27656;53.068;8.818;2023-04-26T14:01:35;5.20;;;2.30;;
41966;SDS011;27656;53.068;8.818;2023-04-26T14:04:02;8.27;;;2.77;;
41966;SDS011;27656;53.068;8.818;2023-04-26T14:06:29;8.37;;;2.40;;
41966;SDS011;27656;53.068;8.818;2023-04-26T14:08:57;6.07;;;2.23;;
41966;SDS011;27656;53.068;8.818;2023-04-26T14:11:24;6.83;;;1.60;;
41966;SDS011;27656;53.068;8.818;2023-04-26T14:13:51;6.10;;;1.67;;
41966;SDS011;27656;53.068;8.818;2023-04-26T14:16:21;5.97;;;1.30;;
41966;SDS011;27656;53.068;8.818;2023-04-26T14:18:49;5.17;;;1.23;;
41966;SDS011;27656;53.068;8.818;2023-04-26T14:21:15;6.83;;;1.27;;
41966;SDS011;27656;53.068;8.818;2023-04-26T14:23:42;5.23;;;1.47;;
41966;SDS011;27656;53.068;8.818;2023-04-26T14:26:08;5.27;;;1.20;;
41966;SDS011;27656;53.068;8.818;2023-04-26T14:28:35;3.43;;;1.50;;
41966;SDS011;27656;53.068;8.818;2023-04-26T14:31:01;6.00;;;1.23;;
41966;SDS011;27656;53.068;8.818;2023-04-26T14:33:28;3.80;;;1.50;;
41966;SDS011;27656;53.068;8.818;2023-04-26T14:35:54;6.00;;;1.47;;
41966;SDS011;27656;53.068;8.818;2023-04-26T14:38:21;4.10;;;1.43;;
41966;SDS011;27656;53.068;8.818;2023-04-26T14:40:48;5.73;;;1.47;;
41966;SDS011;27656;53.068;8.818;2023-04-26T14:43:14;8.20;;;1.73;;
41966;SDS011;27656;53.068;8.818;2023-04-26T14:45:41;6.47;;;1.50;;
41966;SDS011;27656;53.068;8.818;2023-04-26T14:48:10;6.50;;;1.53;;
41966;SDS011;27656;53.068;8.818;2023-04-26T14:50:39;6.03;;;1.70;;
41966;SDS011;27656;53.068;8.818;2023-04-26T14:53:06;3.90;;;1.23;;
41966;SDS011;27656;53.068;8.818;2023-04-26T14:55:32;10.77;;;2.10;;
41966;SDS011;27656;53.068;8.818;2023-04-26T14:57:59;4.13;;;2.03;;
41966;SDS011;27656;53.068;8.818;2023-04-26T15:00:27;6.47;;;1.40;;
41966;SDS011;27656;53.068;8.818;2023-04-26T15:02:55;4.60;;;1.70;;
41966;SDS011;27656;53.068;8.818;2023-04-26T15:05:22;4.57;;;1.83;;
41966;SDS011;27656;53.068;8.818;2023-04-26T15:07:49;5.47;;;1.60;;
41966;SDS011;27656;53.068;8.818;2023-04-26T15:10:17;6.20;;;1.57;;
41966;SDS011;27656;53.068;8.818;2023-04-26T17:12:35;9.53;;;3.50;;
41966;SDS011;27656;53.068;8.818;2023-04-26T17:15:04;5.40;;;2.20;;
41966;SDS011;27656;53.068;8.818;2023-04-26T17:17:32;16.10;;;6.43;;
41966;SDS011;27656;53.068;8.818;2023-04-26T17:19:58;5.60;;;2.10;;